createdAt,value
2019-04-07T00:00:01.039Z,7.2
2019-04-07T00:10:00.920Z,7.1
2019-04-07T00:15:01.020Z,7.0
2019-04-07T00:20:00.875Z,6.9
2019-04-07T00:30:01.065Z,6.8
2019-04-07T00:45:00.977Z,6.7
2019-04-07T01:00:01.523Z,6.6
2019-04-07T01:15:00.944Z,6.5
2019-04-07T01:25:00.940Z,6.4
2019-04-07T01:30:00.935Z,6.4
2019-04-07T01:40:01.520Z,6.3
2019-04-07T01:45:01.477Z,6.3
2019-04-07T01:50:00.958Z,6.2
2019-04-07T02:00:02.968Z,6.2
2019-04-07T02:05:00.983Z,6.1
2019-04-07T02:15:01.021Z,6.0
2019-04-07T02:30:00.990Z,5.9
2019-04-07T02:45:01.376Z,5.9
2019-04-07T02:50:01.636Z,5.8
2019-04-07T02:55:01.215Z,5.7
2019-04-07T03:00:02.116Z,5.6
2019-04-07T03:05:02.127Z,5.5
2019-04-07T03:15:01.030Z,5.4
2019-04-07T03:30:01.175Z,5.4
2019-04-07T03:35:03.045Z,5.5
2019-04-07T03:45:01.281Z,5.5
2019-04-07T04:00:02.480Z,5.4
2019-04-07T04:15:03.397Z,5.4
2019-04-07T04:20:01.014Z,5.3
2019-04-07T04:30:01.233Z,5.3
2019-04-07T04:35:01.402Z,5.2
2019-04-07T04:45:02.708Z,5.2
2019-04-07T05:00:02.255Z,5.2
2019-04-07T05:10:01.579Z,5.3
2019-04-07T05:15:01.939Z,5.3
2019-04-07T05:30:01.476Z,5.4
2019-04-07T05:40:04.679Z,5.5
2019-04-07T05:45:01.317Z,5.6
2019-04-07T05:50:05.182Z,5.7
2019-04-07T05:55:01.741Z,5.9
2019-04-07T06:00:01.575Z,6.1
2019-04-07T06:05:01.454Z,6.2
2019-04-07T06:10:01.196Z,6.5
2019-04-07T06:15:01.833Z,6.6
2019-04-07T06:20:02.549Z,6.8
2019-04-07T06:25:05.298Z,7.0
2019-04-07T06:30:01.131Z,7.2
2019-04-07T06:35:02.716Z,7.3
2019-04-07T06:40:01.356Z,7.6
2019-04-07T06:45:01.903Z,7.7
2019-04-07T06:50:04.855Z,8.0
2019-04-07T06:55:01.092Z,8.2
2019-04-07T07:00:02.155Z,8.4
2019-04-07T07:05:01.190Z,8.5
2019-04-07T07:10:01.070Z,8.8
2019-04-07T07:15:04.434Z,8.9
2019-04-07T07:20:02.754Z,9.2
2019-04-07T07:25:01.433Z,9.3
2019-04-07T07:30:01.469Z,9.5
2019-04-07T07:35:01.067Z,9.7
2019-04-07T07:40:01.049Z,9.9
2019-04-07T07:45:02.494Z,10.1
2019-04-07T07:50:07.589Z,10.3
2019-04-07T07:55:02.725Z,10.4
2019-04-07T08:00:06.907Z,10.6
2019-04-07T08:05:01.829Z,10.7
2019-04-07T08:10:01.406Z,10.9
2019-04-07T08:15:01.920Z,11.1
2019-04-07T08:20:01.129Z,11.3
2019-04-07T08:25:06.232Z,11.5
2019-04-07T08:30:02.605Z,11.7
2019-04-07T08:35:06.848Z,11.8
2019-04-07T08:40:04.175Z,12.0
2019-04-07T08:45:03.232Z,12.1
2019-04-07T08:50:01.918Z,12.3
2019-04-07T08:55:01.844Z,12.4
2019-04-07T09:00:01.332Z,12.6
2019-04-07T09:05:01.310Z,12.7
2019-04-07T09:10:01.085Z,12.8
2019-04-07T09:15:12.029Z,12.9
2019-04-07T09:20:08.917Z,13.0
2019-04-07T09:25:04.815Z,13.1
2019-04-07T09:30:02.254Z,13.2
2019-04-07T09:35:07.221Z,13.4
2019-04-07T09:40:03.144Z,13.5
2019-04-07T09:45:03.205Z,13.7
2019-04-07T09:50:01.617Z,13.9
2019-04-07T09:55:01.293Z,14.0
2019-04-07T10:00:02.176Z,14.1
2019-04-07T10:05:01.163Z,14.2
2019-04-07T10:10:08.842Z,14.3
2019-04-07T10:15:02.298Z,14.5
2019-04-07T10:20:02.294Z,14.6
2019-04-07T10:25:01.209Z,14.7
2019-04-07T10:30:01.206Z,14.8
2019-04-07T10:35:02.440Z,14.9
2019-04-07T10:40:02.063Z,15.1
2019-04-07T10:45:01.300Z,15.2
2019-04-07T10:50:05.463Z,15.3
2019-04-07T10:55:01.233Z,15.4
2019-04-07T11:00:01.578Z,15.5
2019-04-07T11:05:01.880Z,15.6
2019-04-07T11:10:01.270Z,15.8
2019-04-07T11:15:01.355Z,15.9
2019-04-07T11:20:01.501Z,16.1
2019-04-07T11:25:02.401Z,16.2
2019-04-07T11:30:08.071Z,16.4
2019-04-07T11:40:02.132Z,16.6
2019-04-07T11:45:01.253Z,16.6
2019-04-07T11:50:01.867Z,16.7
2019-04-07T11:55:02.071Z,16.8
2019-04-07T12:00:02.402Z,17.0
2019-04-07T12:05:01.184Z,17.1
2019-04-07T12:10:01.076Z,17.3
2019-04-07T12:15:02.388Z,17.5
2019-04-07T12:20:01.340Z,17.7
2019-04-07T12:25:03.191Z,17.8
2019-04-07T12:30:02.377Z,17.8
2019-04-07T12:40:01.411Z,17.9
2019-04-07T12:45:02.013Z,18.0
2019-04-07T12:50:01.996Z,18.1
2019-04-07T12:55:01.611Z,18.2
2019-04-07T13:00:01.894Z,18.3
2019-04-07T13:05:03.498Z,18.4
2019-04-07T13:10:03.195Z,18.5
2019-04-07T13:15:02.304Z,18.5
2019-04-07T13:30:01.376Z,18.5
2019-04-07T13:45:04.402Z,18.5
2019-04-07T13:50:02.476Z,18.6
2019-04-07T13:55:04.414Z,18.7
2019-04-07T14:00:01.915Z,18.8
2019-04-07T14:05:05.085Z,19.0
2019-04-07T14:10:03.823Z,19.1
2019-04-07T14:15:01.303Z,19.1
2019-04-07T14:25:01.568Z,19.0
2019-04-07T14:30:02.713Z,19.0
2019-04-07T14:35:02.201Z,18.9
2019-04-07T14:45:01.590Z,18.9
2019-04-07T14:50:01.922Z,18.8
2019-04-07T15:00:03.349Z,18.7
2019-04-07T15:10:01.359Z,18.6
2019-04-07T15:15:09.137Z,18.5
2019-04-07T15:30:02.637Z,18.5
2019-04-07T15:45:02.613Z,18.5
2019-04-07T16:00:05.362Z,18.5
2019-04-07T16:15:02.305Z,18.5
2019-04-07T16:20:02.682Z,18.4
2019-04-07T16:25:02.024Z,18.3
2019-04-07T16:30:01.420Z,18.3
2019-04-07T16:35:02.013Z,18.4
2019-04-07T16:40:10.481Z,18.5
2019-04-07T16:45:02.264Z,18.6
2019-04-07T16:50:01.354Z,18.7
2019-04-07T16:55:02.509Z,18.8
2019-04-07T17:00:01.780Z,18.7
2019-04-07T17:05:01.918Z,18.6
2019-04-07T17:10:03.833Z,18.4
2019-04-07T17:15:06.377Z,18.3
2019-04-07T17:20:02.301Z,17.9
2019-04-07T17:25:09.865Z,17.6
2019-04-07T17:30:02.928Z,17.1
2019-04-07T17:35:02.404Z,16.6
2019-04-07T17:40:01.709Z,16.0
2019-04-07T17:45:01.725Z,15.5
2019-04-07T17:50:02.534Z,14.9
2019-04-07T17:55:03.119Z,14.5
2019-04-07T18:00:01.977Z,14.0
2019-04-07T18:05:01.538Z,13.7
2019-04-07T18:10:01.360Z,13.2
2019-04-07T18:15:10.010Z,13.0
2019-04-07T18:20:08.517Z,12.7
2019-04-07T18:25:05.061Z,12.5
2019-04-07T18:30:02.382Z,12.2
2019-04-07T18:35:02.493Z,12.0
2019-04-07T18:40:02.628Z,11.7
2019-04-07T18:45:02.013Z,11.5
2019-04-07T18:50:08.973Z,11.3
2019-04-07T18:55:07.926Z,11.1
2019-04-07T19:00:05.921Z,10.8
2019-04-07T19:05:02.207Z,10.7
2019-04-07T19:10:17.498Z,10.5
2019-04-07T19:15:09.167Z,10.4
2019-04-07T19:20:07.485Z,10.2
2019-04-07T19:26:01.222Z,10.1
2019-04-07T19:31:01.255Z,10.0
2019-04-07T19:36:01.326Z,9.9
2019-04-07T19:41:01.429Z,9.7
2019-04-07T19:51:01.321Z,9.6
2019-04-07T19:56:02.403Z,9.5
2019-04-07T20:11:01.461Z,9.5
2019-04-07T20:26:01.681Z,9.4
2019-04-07T20:31:02.911Z,9.3
2019-04-07T20:41:01.329Z,9.2
2019-04-07T20:56:01.447Z,9.3
2019-04-07T21:01:04.496Z,9.4
2019-04-07T21:06:02.081Z,9.5
2019-04-07T21:11:01.576Z,9.6
2019-04-07T21:21:01.542Z,9.5
2019-04-07T21:31:01.671Z,9.4
2019-04-07T21:41:01.929Z,9.3
2019-04-07T21:46:01.392Z,9.2
2019-04-07T21:56:01.741Z,9.1
2019-04-07T22:01:04.407Z,9.0
2019-04-07T22:11:01.591Z,8.9
2019-04-07T22:26:01.333Z,8.8
2019-04-07T22:41:01.387Z,8.8
2019-04-07T22:56:04.720Z,8.9
2019-04-07T23:11:02.180Z,9.0
2019-04-07T23:26:01.936Z,9.0
2019-04-07T23:41:03.103Z,9.0
2019-04-07T23:56:01.697Z,9.0
